createdAt,value
2022-10-03T00:00:11.741Z,100136.38
2022-10-03T00:03:29.291Z,100136.38
2022-10-03T00:06:27.639Z,100142.94
2022-10-03T00:09:27.186Z,100151.81
2022-10-03T00:12:19.549Z,100137.50
2022-10-03T00:15:12.001Z,100137.13
2022-10-03T00:17:59.469Z,100129.75
2022-10-03T00:21:08.332Z,100132.44
2022-10-03T00:23:55.492Z,100122.00
2022-10-03T00:27:00.358Z,100128.56
2022-10-03T00:29:39.533Z,100120.03
2022-10-03T00:32:53.513Z,100116.56
2022-10-03T00:36:03.094Z,100117.34
2022-10-03T00:39:09.582Z,100100.31
2022-10-03T00:42:07.305Z,100099.91
2022-10-03T00:45:12.061Z,100103.38
2022-10-03T00:48:32.541Z,100126.56
2022-10-03T00:51:09.569Z,100132.72
2022-10-03T00:54:17.371Z,100154.34
2022-10-03T00:56:58.661Z,100179.81
2022-10-03T01:00:06.921Z,100209.91
2022-10-03T01:02:40.351Z,100204.78
2022-10-03T01:05:46.951Z,100193.50
2022-10-03T01:08:45.199Z,100189.56
2022-10-03T01:11:43.188Z,100184.06
2022-10-03T01:15:07.138Z,100185.63
2022-10-03T01:18:21.693Z,100193.72
2022-10-03T01:21:07.262Z,100187.53
2022-10-03T01:23:53.019Z,100195.59
2022-10-03T01:26:57.330Z,100173.91
2022-10-03T01:29:52.243Z,100172.34
2022-10-03T01:32:47.514Z,100177.69
2022-10-03T01:35:24.317Z,100166.09
2022-10-03T01:38:22.362Z,100166.50
2022-10-03T01:41:35.991Z,100164.22
2022-10-03T01:44:12.920Z,100152.97
2022-10-03T01:47:08.787Z,100159.13
2022-10-03T01:50:00.638Z,100167.22
2022-10-03T01:53:06.873Z,100177.56
2022-10-03T01:55:56.866Z,100183.72
2022-10-03T01:59:07.780Z,100182.94
2022-10-03T02:01:51.714Z,100200.28
2022-10-03T02:04:34.273Z,100216.50
2022-10-03T02:07:26.449Z,100215.28
2022-10-03T02:10:24.695Z,100225.31
2022-10-03T02:13:17.370Z,100230.59
2022-10-03T02:16:05.703Z,100235.56
2022-10-03T02:18:58.679Z,100238.97
2022-10-03T02:21:32.750Z,100241.13
2022-10-03T02:24:15.435Z,100252.56
2022-10-03T02:27:16.668Z,100255.91
2022-10-03T02:30:37.234Z,100253.09
2022-10-03T02:33:16.002Z,100250.34
2022-10-03T02:36:32.327Z,100248.44
2022-10-03T02:39:36.801Z,100241.50
2022-10-03T02:42:59.924Z,100244.91
2022-10-03T02:45:36.615Z,100240.66
2022-10-03T02:48:31.838Z,100250.31
2022-10-03T02:51:37.253Z,100248.44
2022-10-03T02:54:52.380Z,100250.81
2022-10-03T02:58:14.444Z,100260.88
2022-10-03T03:01:18.744Z,100254.75
2022-10-03T03:04:12.798Z,100255.50
2022-10-03T03:07:16.753Z,100259.28
2022-10-03T03:10:25.234Z,100263.91
2022-10-03T03:13:09.757Z,100263.09
2022-10-03T03:16:14.996Z,100271.19
2022-10-03T03:19:25.625Z,100264.56
2022-10-03T03:22:32.310Z,100268.06
2022-10-03T03:25:38.542Z,100248.34
2022-10-03T03:28:26.635Z,100255.31
2022-10-03T03:31:13.341Z,100253.31
2022-10-03T03:34:34.902Z,100246.72
2022-10-03T03:37:36.594Z,100249.00
2022-10-03T03:40:35.647Z,100253.72
2022-10-03T03:43:05.976Z,100248.75
2022-10-03T03:46:04.449Z,100251.09
2022-10-03T03:49:16.558Z,100259.59
2022-10-03T03:52:31.456Z,100256.13
2022-10-03T03:55:06.334Z,100253.72
2022-10-03T03:57:48.433Z,100262.25
2022-10-03T04:00:38.815Z,100263.09
2022-10-03T04:03:54.288Z,100258.50
2022-10-03T04:06:40.235Z,100249.28
2022-10-03T04:09:43.675Z,100258.59
2022-10-03T04:12:52.538Z,100267.53
2022-10-03T04:15:47.399Z,100258.72
2022-10-03T04:19:08.437Z,100263.31
2022-10-03T04:22:13.306Z,100261.81
2022-10-03T04:25:18.112Z,100264.00
2022-10-03T04:28:34.408Z,100256.84
2022-10-03T04:31:30.723Z,100254.47
2022-10-03T04:34:42.682Z,100271.84
2022-10-03T04:37:19.353Z,100257.41
2022-10-03T04:40:22.086Z,100278.19
2022-10-03T04:43:10.754Z,100283.47
2022-10-03T04:46:06.235Z,100281.81
2022-10-03T04:48:52.139Z,100300.03
2022-10-03T04:52:09.109Z,100290.25
2022-10-03T04:55:24.708Z,100291.13
2022-10-03T04:58:16.682Z,100293.38
2022-10-03T05:01:18.768Z,100291.50
2022-10-03T05:04:34.961Z,100318.53
2022-10-03T05:07:16.342Z,100307.47
2022-10-03T05:10:15.401Z,100307.38
2022-10-03T05:12:54.100Z,100314.94
2022-10-03T05:15:45.109Z,100319.50
2022-10-03T05:18:49.270Z,100317.75
2022-10-03T05:21:31.986Z,100314.03
2022-10-03T05:24:22.646Z,100316.44
2022-10-03T05:27:20.973Z,100315.50
2022-10-03T05:30:24.480Z,100324.13
2022-10-03T05:33:16.967Z,100316.91
2022-10-03T05:36:24.422Z,100322.94
2022-10-03T05:39:53.785Z,100328.63
2022-10-03T05:42:55.512Z,100333.50
2022-10-03T05:45:49.045Z,100341.03
2022-10-03T05:48:56.387Z,100351.09
2022-10-03T05:51:40.317Z,100339.97
2022-10-03T05:54:50.561Z,100343.94
2022-10-03T05:57:41.430Z,100345.00
2022-10-03T06:00:22.755Z,100351.03
2022-10-03T06:03:23.381Z,100346.06
2022-10-03T06:06:20.873Z,100342.34
2022-10-03T06:09:24.409Z,100345.84
2022-10-03T06:12:10.074Z,100352.78
2022-10-03T06:14:58.037Z,100349.97
2022-10-03T06:18:08.454Z,100360.63
2022-10-03T06:21:32.468Z,100377.75
2022-10-03T06:24:14.644Z,100365.50
2022-10-03T06:26:59.502Z,100371.66
2022-10-03T06:30:11.958Z,100371.66
2022-10-03T06:33:10.924Z,100390.22
2022-10-03T06:36:21.266Z,100379.06
2022-10-03T06:39:28.397Z,100380.25
2022-10-03T06:42:41.585Z,100378.84
2022-10-03T06:46:09.195Z,100384.44
2022-10-03T06:49:32.690Z,100384.69
2022-10-03T06:52:14.793Z,100378.00
2022-10-03T06:55:04.555Z,100381.31
2022-10-03T06:58:17.988Z,100386.72
2022-10-03T07:01:05.370Z,100391.91
2022-10-03T07:04:29.473Z,100389.66
2022-10-03T07:07:52.692Z,100399.84
2022-10-03T07:10:37.886Z,100393.59
2022-10-03T07:14:09.121Z,100394.50
2022-10-03T07:17:11.806Z,100398.66
2022-10-03T07:20:28.735Z,100400.19
2022-10-03T07:23:39.588Z,100410.44
2022-10-03T07:26:45.071Z,100405.75
2022-10-03T07:29:28.338Z,100410.13
2022-10-03T07:32:10.710Z,100429.22
2022-10-03T07:35:01.097Z,100421.69
2022-10-03T07:38:02.414Z,100428.03
2022-10-03T07:41:11.976Z,100428.19
2022-10-03T07:44:07.790Z,100420.53
2022-10-03T07:47:27.609Z,100434.16
2022-10-03T07:50:25.946Z,100422.63
2022-10-03T07:54:01.840Z,100431.97
2022-10-03T07:56:57.425Z,100437.81
2022-10-03T08:00:15.685Z,100436.75
2022-10-03T08:03:41.314Z,100433.41
2022-10-03T08:06:43.636Z,100432.69
2022-10-03T08:09:50.575Z,100431.66
2022-10-03T08:12:40.456Z,100427.84
2022-10-03T08:16:14.292Z,100434.41
2022-10-03T08:19:27.423Z,100449.25
2022-10-03T08:22:16.074Z,100429.34
2022-10-03T08:25:29.765Z,100447.66
2022-10-03T08:28:18.252Z,100479.88
2022-10-03T08:31:19.164Z,100465.50
2022-10-03T08:34:44.070Z,100455.56
2022-10-03T08:37:35.666Z,100462.66
2022-10-03T08:40:21.320Z,100461.88
2022-10-03T08:43:23.194Z,100459.19
2022-10-03T08:46:15.287Z,100474.75
2022-10-03T08:49:06.909Z,100466.63
2022-10-03T08:51:56.617Z,100469.72
2022-10-03T08:54:42.767Z,100470.81
2022-10-03T08:58:03.111Z,100470.75
2022-10-03T09:01:13.340Z,100483.97
2022-10-03T09:03:58.700Z,100475.00
2022-10-03T09:14:42.955Z,100475.22
2022-10-03T09:18:05.303Z,100471.91
2022-10-03T09:21:13.332Z,100470.03
2022-10-03T09:23:59.478Z,100480.16
2022-10-03T09:27:02.709Z,100475.63
2022-10-03T09:30:15.986Z,100470.63
2022-10-03T09:33:08.014Z,100469.44
2022-10-03T09:35:50.432Z,100464.88
2022-10-03T09:38:51.259Z,100467.97
2022-10-03T09:41:49.387Z,100449.88
2022-10-03T09:44:19.714Z,100463.44
2022-10-03T09:47:27.916Z,100463.53
2022-10-03T09:50:21.214Z,100451.03
2022-10-03T09:53:30.122Z,100445.41
2022-10-03T09:56:34.702Z,100439.66
2022-10-03T09:59:12.155Z,100440.47
2022-10-03T10:01:54.090Z,100465.31
2022-10-03T10:04:56.157Z,100463.31
2022-10-03T10:07:43.286Z,100450.16
2022-10-03T10:10:38.900Z,100452.50
2022-10-03T10:13:12.200Z,100450.56
2022-10-03T10:15:48.652Z,100450.94
2022-10-03T10:18:50.621Z,100443.13
2022-10-03T10:21:45.541Z,100453.97
2022-10-03T10:24:50.815Z,100439.22
2022-10-03T10:27:42.326Z,100458.97
2022-10-03T10:31:03.349Z,100436.94
2022-10-03T10:34:22.768Z,100440.50
2022-10-03T10:36:58.184Z,100440.94
2022-10-03T10:39:58.029Z,100447.50
2022-10-03T10:43:15.838Z,100435.06
2022-10-03T10:46:31.070Z,100450.22
2022-10-03T10:49:57.168Z,100428.56
2022-10-03T10:53:00.276Z,100432.13
2022-10-03T10:55:59.929Z,100445.41
2022-10-03T10:58:53.302Z,100431.13
2022-10-03T11:02:15.216Z,100423.75
2022-10-03T11:05:39.615Z,100430.75
2022-10-03T11:09:12.754Z,100415.50
2022-10-03T11:12:23.943Z,100412.84
2022-10-03T11:15:38.129Z,100433.41
2022-10-03T11:18:32.681Z,100424.13
2022-10-03T11:21:00.196Z,100417.56
2022-10-03T11:24:09.677Z,100419.84
2022-10-03T11:27:35.899Z,100429.88
2022-10-03T11:30:42.933Z,100432.94
2022-10-03T11:34:04.429Z,100407.41
2022-10-03T11:37:06.052Z,100398.19
2022-10-03T11:39:39.460Z,100408.66
2022-10-03T11:43:34.468Z,100410.63
2022-10-03T11:46:57.190Z,100400.53
2022-10-03T11:49:58.010Z,100419.16
2022-10-03T11:53:03.501Z,100419.16
2022-10-03T11:55:42.190Z,100430.75
2022-10-03T11:58:34.110Z,100423.00
2022-10-03T12:01:04.607Z,100419.53
2022-10-03T12:03:44.335Z,100413.75
2022-10-03T12:06:58.593Z,100416.03
2022-10-03T12:10:04.679Z,100412.97
2022-10-03T12:12:46.128Z,100418.41
2022-10-03T12:15:38.330Z,100405.59
2022-10-03T12:18:18.139Z,100414.50
2022-10-03T12:21:07.594Z,100411.78
2022-10-03T12:23:35.642Z,100419.94
2022-10-03T12:26:04.926Z,100401.66
2022-10-03T12:28:44.347Z,100424.91
2022-10-03T12:31:35.875Z,100422.13
2022-10-03T12:34:12.572Z,100419.69
2022-10-03T12:36:52.057Z,100425.91
2022-10-03T12:39:44.884Z,100414.97
2022-10-03T12:43:09.552Z,100419.28
2022-10-03T12:45:59.129Z,100419.38
2022-10-03T12:48:55.666Z,100418.63
2022-10-03T12:51:42.440Z,100432.22
2022-10-03T12:54:35.018Z,100425.19
2022-10-03T12:57:47.718Z,100429.00
2022-10-03T13:00:47.486Z,100430.53
2022-10-03T13:03:31.043Z,100415.88
2022-10-03T13:07:01.611Z,100430.63
2022-10-03T13:09:33.021Z,100440.25
2022-10-03T13:12:10.626Z,100425.09
2022-10-03T13:14:58.515Z,100422.75
2022-10-03T13:17:47.857Z,100431.25
2022-10-03T13:20:35.451Z,100431.97
2022-10-03T13:23:28.230Z,100407.94
2022-10-03T13:26:15.918Z,100426.88
2022-10-03T13:28:58.326Z,100431.16
2022-10-03T13:31:33.142Z,100432.69
2022-10-03T13:34:11.902Z,100410.22
2022-10-03T13:37:09.863Z,100419.47
2022-10-03T13:39:56.038Z,100433.34
2022-10-03T13:42:53.567Z,100428.28
2022-10-03T13:45:27.414Z,100414.00
2022-10-03T13:48:17.299Z,100416.00
2022-10-03T13:50:52.366Z,100427.63
2022-10-03T13:54:00.045Z,100428.84
2022-10-03T13:57:02.303Z,100420.72
2022-10-03T13:59:47.364Z,100425.03
2022-10-03T14:02:42.202Z,100410.78
2022-10-03T14:06:02.414Z,100414.06
2022-10-03T14:08:40.263Z,100415.28
2022-10-03T14:11:50.196Z,100406.66
2022-10-03T14:15:06.858Z,100404.81
2022-10-03T14:17:56.929Z,100406.28
2022-10-03T14:20:53.371Z,100412.56
2022-10-03T14:23:32.875Z,100411.88
2022-10-03T14:26:32.824Z,100413.91
2022-10-03T14:29:33.591Z,100423.72
2022-10-03T14:32:46.935Z,100417.59
2022-10-03T14:35:38.274Z,100413.75
2022-10-03T14:38:58.771Z,100417.94
2022-10-03T14:41:49.969Z,100413.56
2022-10-03T14:44:21.321Z,100425.50
2022-10-03T14:47:01.792Z,100411.09
2022-10-03T14:49:54.839Z,100419.97
2022-10-03T14:52:46.077Z,100408.66
2022-10-03T14:55:29.018Z,100421.06
2022-10-03T14:58:13.037Z,100414.81
2022-10-03T15:00:48.824Z,100419.78
2022-10-03T15:03:16.252Z,100422.09
2022-10-03T15:06:21.947Z,100423.94
2022-10-03T15:08:55.025Z,100429.34
2022-10-03T15:11:33.370Z,100413.81
2022-10-03T15:14:09.085Z,100417.72
2022-10-03T15:16:56.308Z,100408.38
2022-10-03T15:19:47.875Z,100423.84
2022-10-03T15:22:36.936Z,100421.50
2022-10-03T15:25:40.051Z,100414.66
2022-10-03T15:28:20.164Z,100417.94
2022-10-03T15:30:49.790Z,100420.25
2022-10-03T15:33:32.448Z,100416.78
2022-10-03T15:36:26.899Z,100430.38
2022-10-03T15:39:03.067Z,100427.28
2022-10-03T15:41:51.395Z,100428.81
2022-10-03T15:44:45.551Z,100432.22
2022-10-03T15:47:19.945Z,100432.41
2022-10-03T15:50:07.270Z,100435.38
2022-10-03T15:52:40.256Z,100431.38
2022-10-03T15:55:19.843Z,100431.72
2022-10-03T15:57:51.025Z,100438.97
2022-10-03T16:00:32.142Z,100431.16
2022-10-03T16:03:23.077Z,100431.13
2022-10-03T16:06:36.017Z,100441.03
2022-10-03T16:09:22.060Z,100443.31
2022-10-03T16:12:16.733Z,100456.81
2022-10-03T16:14:58.001Z,100445.06
2022-10-03T16:17:56.629Z,100448.44
2022-10-03T16:20:45.707Z,100459.13
2022-10-03T16:23:29.229Z,100451.66
2022-10-03T16:26:30.933Z,100459.69
2022-10-03T16:29:15.006Z,100474.78
2022-10-03T16:32:03.587Z,100476.47
2022-10-03T16:34:34.350Z,100489.53
2022-10-03T16:37:06.962Z,100485.59
2022-10-03T16:39:38.638Z,100487.09
2022-10-03T16:42:25.942Z,100496.31
2022-10-03T16:44:58.156Z,100496.31
2022-10-03T16:47:36.590Z,100497.03
2022-10-03T16:50:24.931Z,100509.38
2022-10-03T16:52:58.642Z,100501.59
2022-10-03T16:55:36.357Z,100515.84
2022-10-03T16:58:15.207Z,100508.56
2022-10-03T17:01:26.252Z,100512.41
2022-10-03T17:04:29.150Z,100513.13
2022-10-03T17:07:02.220Z,100510.38
2022-10-03T17:09:48.972Z,100515.41
2022-10-03T17:12:30.276Z,100521.09
2022-10-03T17:15:16.277Z,100522.56
2022-10-03T17:18:25.497Z,100522.97
2022-10-03T17:21:08.434Z,100530.78
2022-10-03T17:24:00.519Z,100528.81
2022-10-03T17:26:42.692Z,100530.78
2022-10-03T17:29:33.539Z,100531.09
2022-10-03T17:32:09.543Z,100528.03
2022-10-03T17:34:48.034Z,100533.72
2022-10-03T17:37:42.114Z,100529.91
2022-10-03T17:40:23.254Z,100529.91
2022-10-03T17:43:14.648Z,100529.81
2022-10-03T17:45:50.468Z,100533.25
2022-10-03T17:48:38.614Z,100527.88
2022-10-03T17:51:36.952Z,100539.84
2022-10-03T17:54:26.424Z,100539.50
2022-10-03T17:57:13.965Z,100531.38
2022-10-03T18:00:00.540Z,100536.78
2022-10-03T18:02:56.811Z,100532.97
2022-10-03T18:05:32.970Z,100534.09
2022-10-03T18:08:14.557Z,100524.41
2022-10-03T18:10:49.551Z,100533.22
2022-10-03T18:13:43.948Z,100529.69
2022-10-03T18:16:20.482Z,100536.63
2022-10-03T18:19:39.192Z,100526.59
2022-10-03T18:22:40.958Z,100530.50
2022-10-03T18:29:31.539Z,100525.28
2022-10-03T18:32:22.212Z,100533.06
2022-10-03T18:35:21.080Z,100535.00
2022-10-03T18:38:05.259Z,100544.19
2022-10-03T18:41:01.474Z,100546.22
2022-10-03T18:43:31.304Z,100545.78
2022-10-03T18:46:15.272Z,100545.50
2022-10-03T18:49:28.347Z,100545.06
2022-10-03T18:52:00.564Z,100542.53
2022-10-03T18:54:59.223Z,100540.94
2022-10-03T18:57:57.472Z,100544.47
2022-10-03T19:00:31.713Z,100546.66
2022-10-03T19:03:13.516Z,100565.06
2022-10-03T19:06:18.561Z,100562.72
2022-10-03T19:09:02.312Z,100560.72
2022-10-03T19:11:35.371Z,100569.94
2022-10-03T19:14:16.346Z,100570.09
2022-10-03T19:17:05.192Z,100564.13
2022-10-03T19:20:11.404Z,100561.06
2022-10-03T19:23:08.237Z,100568.47
2022-10-03T19:25:38.718Z,100567.81
2022-10-03T19:28:41.332Z,100573.94
2022-10-03T19:31:12.227Z,100567.69
2022-10-03T19:33:49.447Z,100579.63
2022-10-03T19:36:28.133Z,100574.50
2022-10-03T19:38:59.189Z,100572.94
2022-10-03T19:41:46.872Z,100584.47
2022-10-03T19:44:25.776Z,100578.69
2022-10-03T19:47:16.116Z,100582.53
2022-10-03T19:50:21.949Z,100586.59
2022-10-03T19:52:50.166Z,100586.44
2022-10-03T19:55:40.960Z,100575.09
2022-10-03T19:58:23.814Z,100587.44
2022-10-03T20:00:59.487Z,100581.03
2022-10-03T20:03:38.526Z,100590.00
2022-10-03T20:06:18.686Z,100590.41
2022-10-03T20:08:59.421Z,100584.47
2022-10-03T20:11:51.626Z,100587.16
2022-10-03T20:14:29.100Z,100592.91
2022-10-03T20:17:22.782Z,100590.34
2022-10-03T20:20:04.468Z,100595.69
2022-10-03T20:22:36.542Z,100595.47
2022-10-03T20:25:08.497Z,100601.50
2022-10-03T20:27:49.744Z,100595.09
2022-10-03T20:30:35.951Z,100588.94
2022-10-03T20:33:06.272Z,100591.00
2022-10-03T20:36:19.156Z,100592.03
2022-10-03T20:39:04.805Z,100605.88
2022-10-03T20:42:16.090Z,100602.06
2022-10-03T20:45:03.230Z,100594.09
2022-10-03T20:48:10.359Z,100603.63
2022-10-03T20:50:46.398Z,100594.19
2022-10-03T20:53:23.243Z,100601.94
2022-10-03T20:56:08.890Z,100603.53
2022-10-03T20:59:05.732Z,100595.09
2022-10-03T21:01:37.556Z,100595.09
2022-10-03T21:04:07.902Z,100599.59
2022-10-03T21:07:23.492Z,100607.59
2022-10-03T21:10:28.751Z,100606.03
2022-10-03T21:13:34.486Z,100601.78
2022-10-03T21:16:16.383Z,100606.94
2022-10-03T21:18:55.630Z,100605.28
2022-10-03T21:21:42.160Z,100599.19
2022-10-03T21:24:27.573Z,100598.06
2022-10-03T21:27:22.591Z,100594.69
2022-10-03T21:30:24.354Z,100605.47
2022-10-03T21:33:11.495Z,100600.34
2022-10-03T21:35:48.746Z,100603.13
2022-10-03T21:38:47.052Z,100602.88
2022-10-03T21:41:37.991Z,100598.47
2022-10-03T21:44:16.998Z,100595.78
2022-10-03T21:47:38.779Z,100593.19
2022-10-03T21:50:27.457Z,100586.34
2022-10-03T21:53:31.908Z,100606.63
2022-10-03T21:56:37.537Z,100586.16
2022-10-03T21:59:40.010Z,100590.34
2022-10-03T22:03:07.262Z,100596.69
2022-10-03T22:06:04.067Z,100604.16
2022-10-03T22:08:37.309Z,100610.41
2022-10-03T22:11:29.059Z,100598.25
2022-10-03T22:14:47.221Z,100603.19
2022-10-03T22:17:35.183Z,100601.91
2022-10-03T22:20:23.417Z,100593.06
2022-10-03T22:23:21.589Z,100601.03
2022-10-03T22:26:06.869Z,100589.91
2022-10-03T22:29:00.406Z,100595.91
2022-10-03T22:31:51.399Z,100606.31
2022-10-03T22:34:43.615Z,100593.75
2022-10-03T22:37:14.769Z,100594.59
2022-10-03T22:39:43.259Z,100602.41
2022-10-03T22:42:15.197Z,100610.06
2022-10-03T22:44:48.050Z,100599.22
2022-10-03T22:47:24.824Z,100602.94
2022-10-03T22:49:59.057Z,100598.69
2022-10-03T22:52:37.665Z,100611.13
2022-10-03T22:55:09.177Z,100614.06
2022-10-03T22:57:39.319Z,100601.63
2022-10-03T23:00:11.821Z,100611.13
2022-10-03T23:02:59.301Z,100609.00
2022-10-03T23:05:53.837Z,100604.56
2022-10-03T23:08:40.237Z,100601.00
2022-10-03T23:11:27.240Z,100610.53
2022-10-03T23:14:01.353Z,100612.13
2022-10-03T23:17:11.169Z,100619.41
2022-10-03T23:20:14.606Z,100618.97
2022-10-03T23:22:48.101Z,100620.97
2022-10-03T23:25:34.251Z,100623.75
2022-10-03T23:28:53.718Z,100631.94
2022-10-03T23:31:49.332Z,100621.47
2022-10-03T23:34:37.795Z,100623.97
2022-10-03T23:37:15.077Z,100633.50
2022-10-03T23:39:54.852Z,100626.44
2022-10-03T23:42:33.469Z,100631.63
2022-10-03T23:45:07.479Z,100620.69
2022-10-03T23:47:51.257Z,100631.69
2022-10-03T23:50:55.930Z,100630.00
2022-10-03T23:53:29.988Z,100626.97
2022-10-03T23:56:02.151Z,100621.25
2022-10-03T23:58:36.783Z,100623.91
